sensor_id;sensor_type;location;lat;lon;timestamp;pressure;altitude;pressure_sealevel;temperature;humidity
37078;BME280;22989;55.998;37.212;2023-03-01T00:02:02;-11298.94;;;-145.39;50.55
37078;BME280;22989;55.998;37.212;2023-03-01T00:04:27;-11298.94;;;-145.39;50.50
37078;BME280;22989;55.998;37.212;2023-03-01T00:06:53;-11298.94;;;-145.39;50.39
37078;BME280;22989;55.998;37.212;2023-03-01T00:09:19;-11298.94;;;-145.39;50.58
37078;BME280;22989;55.998;37.212;2023-03-01T00:11:45;-11298.94;;;-145.39;50.60
37078;BME280;22989;55.998;37.212;2023-03-01T00:14:11;-11298.94;;;-145.39;50.36
37078;BME280;22989;55.998;37.212;2023-03-01T00:16:39;-11298.94;;;-145.39;50.33
37078;BME280;22989;55.998;37.212;2023-03-01T00:19:07;-11298.94;;;-145.39;50.35
37078;BME280;22989;55.998;37.212;2023-03-01T00:21:33;-11298.94;;;-145.39;50.36
37078;BME280;22989;55.998;37.212;2023-03-01T00:24:01;-11298.94;;;-145.39;50.59
37078;BME280;22989;55.998;37.212;2023-03-01T00:26:27;-11298.94;;;-145.39;50.53
37078;BME280;22989;55.998;37.212;2023-03-01T00:28:53;-11298.94;;;-145.39;50.62
37078;BME280;22989;55.998;37.212;2023-03-01T00:31:23;-11298.94;;;-145.39;50.48
37078;BME280;22989;55.998;37.212;2023-03-01T00:33:54;-11298.94;;;-145.39;50.80
37078;BME280;22989;55.998;37.212;2023-03-01T00:36:30;-11298.94;;;-145.39;50.81
37078;BME280;22989;55.998;37.212;2023-03-01T00:38:56;-11298.94;;;-145.39;50.62
37078;BME280;22989;55.998;37.212;2023-03-01T00:41:22;-11298.94;;;-145.39;50.25
37078;BME280;22989;55.998;37.212;2023-03-01T00:43:49;-11298.94;;;-145.39;50.88
37078;BME280;22989;55.998;37.212;2023-03-01T00:46:20;-11298.94;;;-145.39;51.25
37078;BME280;22989;55.998;37.212;2023-03-01T00:48:46;-11298.94;;;-145.39;51.18
37078;BME280;22989;55.998;37.212;2023-03-01T00:51:18;-11298.94;;;-145.39;51.14
37078;BME280;22989;55.998;37.212;2023-03-01T00:53:45;-11298.94;;;-145.39;51.26
37078;BME280;22989;55.998;37.212;2023-03-01T00:56:13;-11298.94;;;-145.39;51.24
37078;BME280;22989;55.998;37.212;2023-03-01T00:58:39;-11298.94;;;-145.39;51.45
37078;BME280;22989;55.998;37.212;2023-03-01T01:01:19;-11298.94;;;-145.39;51.37
37078;BME280;22989;55.998;37.212;2023-03-01T01:03:51;-11298.94;;;-145.39;51.24
37078;BME280;22989;55.998;37.212;2023-03-01T01:06:37;-11298.94;;;-145.39;51.27
37078;BME280;22989;55.998;37.212;2023-03-01T01:09:07;-11298.94;;;-145.39;51.17
37078;BME280;22989;55.998;37.212;2023-03-01T01:11:34;-11298.94;;;-145.39;51.41
37078;BME280;22989;55.998;37.212;2023-03-01T01:14:02;-11298.94;;;-145.39;51.52
37078;BME280;22989;55.998;37.212;2023-03-01T01:16:29;-11298.94;;;-145.39;51.33
37078;BME280;22989;55.998;37.212;2023-03-01T01:18:56;-11298.94;;;-145.39;51.42
37078;BME280;22989;55.998;37.212;2023-03-01T01:21:23;-11298.94;;;-145.39;51.54
37078;BME280;22989;55.998;37.212;2023-03-01T01:23:50;-11298.94;;;-145.39;51.52
37078;BME280;22989;55.998;37.212;2023-03-01T01:26:19;-11298.94;;;-145.39;51.83
37078;BME280;22989;55.998;37.212;2023-03-01T01:28:46;-11298.94;;;-145.39;51.99
37078;BME280;22989;55.998;37.212;2023-03-01T01:31:12;-11298.94;;;-145.39;51.79
37078;BME280;22989;55.998;37.212;2023-03-01T01:33:38;-11298.94;;;-145.39;51.63
37078;BME280;22989;55.998;37.212;2023-03-01T01:36:05;-11298.94;;;-145.39;51.90
37078;BME280;22989;55.998;37.212;2023-03-01T01:38:31;-11298.94;;;-145.39;51.57
37078;BME280;22989;55.998;37.212;2023-03-01T01:40:57;-11298.94;;;-145.39;51.78
37078;BME280;22989;55.998;37.212;2023-03-01T01:43:29;-11298.94;;;-145.39;51.74
37078;BME280;22989;55.998;37.212;2023-03-01T01:45:59;-11298.94;;;-145.39;51.78
37078;BME280;22989;55.998;37.212;2023-03-01T01:48:32;-11298.94;;;-145.39;51.53
37078;BME280;22989;55.998;37.212;2023-03-01T01:51:08;-11298.94;;;-145.39;51.69
37078;BME280;22989;55.998;37.212;2023-03-01T01:53:35;-11298.94;;;-145.39;51.78
37078;BME280;22989;55.998;37.212;2023-03-01T01:56:02;-11298.94;;;-145.39;51.78
37078;BME280;22989;55.998;37.212;2023-03-01T01:58:29;-11298.94;;;-145.39;52.12
37078;BME280;22989;55.998;37.212;2023-03-01T02:00:56;-11298.94;;;-145.39;52.00
37078;BME280;22989;55.998;37.212;2023-03-01T02:03:28;-11298.94;;;-145.39;52.14
37078;BME280;22989;55.998;37.212;2023-03-01T02:06:07;-11298.94;;;-145.39;52.13
37078;BME280;22989;55.998;37.212;2023-03-01T02:08:38;-11298.94;;;-145.39;52.16
37078;BME280;22989;55.998;37.212;2023-03-01T02:11:07;-11298.94;;;-145.39;52.12
37078;BME280;22989;55.998;37.212;2023-03-01T02:13:34;-11298.94;;;-145.39;52.47
37078;BME280;22989;55.998;37.212;2023-03-01T02:16:11;-11298.94;;;-145.39;52.27
37078;BME280;22989;55.998;37.212;2023-03-01T02:18:39;-11298.94;;;-145.39;52.46
37078;BME280;22989;55.998;37.212;2023-03-01T02:21:11;-11298.94;;;-145.39;52.47
37078;BME280;22989;55.998;37.212;2023-03-01T02:23:41;-11298.94;;;-145.39;52.57
37078;BME280;22989;55.998;37.212;2023-03-01T02:26:29;-11298.94;;;-145.39;52.75
37078;BME280;22989;55.998;37.212;2023-03-01T02:28:59;-11298.94;;;-145.39;53.09
37078;BME280;22989;55.998;37.212;2023-03-01T02:31:25;-11298.94;;;-145.39;52.95
37078;BME280;22989;55.998;37.212;2023-03-01T02:34:14;-11298.94;;;-145.39;52.87
37078;BME280;22989;55.998;37.212;2023-03-01T02:36:45;-11298.94;;;-145.39;53.08
37078;BME280;22989;55.998;37.212;2023-03-01T02:39:17;-11298.94;;;-145.39;52.97
37078;BME280;22989;55.998;37.212;2023-03-01T02:41:47;-11298.94;;;-145.39;53.08
37078;BME280;22989;55.998;37.212;2023-03-01T02:44:14;-11298.94;;;-145.39;53.34
37078;BME280;22989;55.998;37.212;2023-03-01T02:46:52;-11298.94;;;-145.39;53.42
37078;BME280;22989;55.998;37.212;2023-03-01T02:49:28;-11298.94;;;-145.39;53.35
37078;BME280;22989;55.998;37.212;2023-03-01T02:57:16;-11298.94;;;-145.39;53.49
37078;BME280;22989;55.998;37.212;2023-03-01T02:59:43;-11298.94;;;-145.39;53.87
37078;BME280;22989;55.998;37.212;2023-03-01T03:02:29;-11298.94;;;-145.39;53.86
37078;BME280;22989;55.998;37.212;2023-03-01T03:05:16;-11298.94;;;-145.39;54.03
37078;BME280;22989;55.998;37.212;2023-03-01T03:07:45;-11298.94;;;-145.39;53.83
37078;BME280;22989;55.998;37.212;2023-03-01T03:10:20;-11298.94;;;-145.39;53.83
37078;BME280;22989;55.998;37.212;2023-03-01T03:12:58;-11298.94;;;-145.39;53.95
37078;BME280;22989;55.998;37.212;2023-03-01T03:15:25;-11298.94;;;-145.39;54.07
37078;BME280;22989;55.998;37.212;2023-03-01T03:17:52;-11298.94;;;-145.39;53.93
37078;BME280;22989;55.998;37.212;2023-03-01T03:20:21;-11298.94;;;-145.39;54.10
37078;BME280;22989;55.998;37.212;2023-03-01T03:22:52;-11298.94;;;-145.39;53.95
37078;BME280;22989;55.998;37.212;2023-03-01T03:25:18;-11298.94;;;-145.39;54.10
37078;BME280;22989;55.998;37.212;2023-03-01T03:27:47;-11298.94;;;-145.39;54.10
37078;BME280;22989;55.998;37.212;2023-03-01T03:30:15;-11298.94;;;-145.39;54.17
37078;BME280;22989;55.998;37.212;2023-03-01T03:32:42;-11298.94;;;-145.39;54.44
37078;BME280;22989;55.998;37.212;2023-03-01T03:35:22;-11298.94;;;-145.39;54.40
37078;BME280;22989;55.998;37.212;2023-03-01T03:37:50;-11298.94;;;-145.39;54.54
37078;BME280;22989;55.998;37.212;2023-03-01T03:40:51;-11298.94;;;-145.39;54.60
37078;BME280;22989;55.998;37.212;2023-03-01T03:43:20;-11298.94;;;-145.39;54.81
37078;BME280;22989;55.998;37.212;2023-03-01T03:45:48;-11298.94;;;-145.39;54.56
37078;BME280;22989;55.998;37.212;2023-03-01T03:48:14;-11298.94;;;-145.39;54.78
37078;BME280;22989;55.998;37.212;2023-03-01T03:50:40;-11298.94;;;-145.39;54.81
37078;BME280;22989;55.998;37.212;2023-03-01T03:53:11;-11298.94;;;-145.39;54.81
37078;BME280;22989;55.998;37.212;2023-03-01T03:55:37;-11298.94;;;-145.39;54.61
37078;BME280;22989;55.998;37.212;2023-03-01T03:58:08;-11298.94;;;-145.39;54.76
37078;BME280;22989;55.998;37.212;2023-03-01T04:00:40;-11298.94;;;-145.39;54.50
37078;BME280;22989;55.998;37.212;2023-03-01T04:03:06;-11298.94;;;-145.39;54.59
37078;BME280;22989;55.998;37.212;2023-03-01T04:05:32;-11298.94;;;-145.39;54.52
37078;BME280;22989;55.998;37.212;2023-03-01T04:07:58;-11298.94;;;-145.39;54.47
37078;BME280;22989;55.998;37.212;2023-03-01T04:10:29;-11298.94;;;-145.39;54.59
37078;BME280;22989;55.998;37.212;2023-03-01T04:12:55;-11298.94;;;-145.39;54.71
37078;BME280;22989;55.998;37.212;2023-03-01T04:15:21;-11298.94;;;-145.39;54.83
37078;BME280;22989;55.998;37.212;2023-03-01T04:17:50;-11298.94;;;-145.39;54.83
37078;BME280;22989;55.998;37.212;2023-03-01T04:20:25;-11298.94;;;-145.39;54.81
37078;BME280;22989;55.998;37.212;2023-03-01T04:22:58;-11298.94;;;-145.39;54.66
37078;BME280;22989;55.998;37.212;2023-03-01T04:25:24;-11298.94;;;-145.39;54.88
37078;BME280;22989;55.998;37.212;2023-03-01T04:27:51;-11298.94;;;-145.39;54.80
37078;BME280;22989;55.998;37.212;2023-03-01T04:30:17;-11298.94;;;-145.39;54.66
37078;BME280;22989;55.998;37.212;2023-03-01T04:32:42;-11298.94;;;-145.39;54.57
37078;BME280;22989;55.998;37.212;2023-03-01T04:35:08;-11298.94;;;-145.39;54.74
37078;BME280;22989;55.998;37.212;2023-03-01T04:37:34;-11298.94;;;-145.39;54.42
37078;BME280;22989;55.998;37.212;2023-03-01T04:40:01;-11298.94;;;-145.39;54.40
37078;BME280;22989;55.998;37.212;2023-03-01T04:42:37;-11298.94;;;-145.39;54.29
37078;BME280;22989;55.998;37.212;2023-03-01T04:45:03;-11298.94;;;-145.39;54.09
37078;BME280;22989;55.998;37.212;2023-03-01T04:47:42;-11298.94;;;-145.39;53.83
37078;BME280;22989;55.998;37.212;2023-03-01T04:50:11;-11298.94;;;-145.39;53.55
37078;BME280;22989;55.998;37.212;2023-03-01T04:52:36;-11298.94;;;-145.39;53.49
37078;BME280;22989;55.998;37.212;2023-03-01T04:55:02;-11298.94;;;-145.39;53.57
37078;BME280;22989;55.998;37.212;2023-03-01T04:57:29;-11298.94;;;-145.39;53.80
37078;BME280;22989;55.998;37.212;2023-03-01T04:59:55;-11298.94;;;-145.39;53.51
37078;BME280;22989;55.998;37.212;2023-03-01T05:02:20;-11298.94;;;-145.39;53.71
37078;BME280;22989;55.998;37.212;2023-03-01T05:04:46;-11298.94;;;-145.39;53.45
37078;BME280;22989;55.998;37.212;2023-03-01T05:07:12;-11298.94;;;-145.39;53.32
37078;BME280;22989;55.998;37.212;2023-03-01T05:09:38;-11298.94;;;-145.39;52.73
37078;BME280;22989;55.998;37.212;2023-03-01T05:12:04;-11298.94;;;-145.39;52.43
37078;BME280;22989;55.998;37.212;2023-03-01T05:14:30;-11298.94;;;-145.39;52.25
37078;BME280;22989;55.998;37.212;2023-03-01T05:16:55;-11298.94;;;-145.39;52.02
37078;BME280;22989;55.998;37.212;2023-03-01T05:19:29;-11298.94;;;-145.39;51.75
37078;BME280;22989;55.998;37.212;2023-03-01T05:21:57;-11298.94;;;-145.39;51.54
37078;BME280;22989;55.998;37.212;2023-03-01T05:24:33;-11298.94;;;-145.39;51.60
37078;BME280;22989;55.998;37.212;2023-03-01T05:27:00;-11298.94;;;-145.39;51.49
37078;BME280;22989;55.998;37.212;2023-03-01T05:29:26;-11298.94;;;-145.39;51.07
37078;BME280;22989;55.998;37.212;2023-03-01T05:31:57;-11298.94;;;-145.39;50.88
37078;BME280;22989;55.998;37.212;2023-03-01T05:34:32;-11298.94;;;-145.39;50.63
37078;BME280;22989;55.998;37.212;2023-03-01T05:36:59;-11298.94;;;-145.39;50.61
37078;BME280;22989;55.998;37.212;2023-03-01T05:39:26;-11298.94;;;-145.39;50.40
37078;BME280;22989;55.998;37.212;2023-03-01T05:41:58;-11298.94;;;-145.39;50.12
37078;BME280;22989;55.998;37.212;2023-03-01T05:44:24;-11298.94;;;-145.39;50.07
37078;BME280;22989;55.998;37.212;2023-03-01T05:46:51;-11298.94;;;-145.39;49.43
37078;BME280;22989;55.998;37.212;2023-03-01T05:49:17;-11298.94;;;-145.39;49.48
37078;BME280;22989;55.998;37.212;2023-03-01T05:51:47;-11298.94;;;-145.39;48.85
37078;BME280;22989;55.998;37.212;2023-03-01T05:54:14;-11298.94;;;-145.39;48.43
37078;BME280;22989;55.998;37.212;2023-03-01T05:56:40;-11298.94;;;-145.39;48.51
37078;BME280;22989;55.998;37.212;2023-03-01T05:59:06;-11298.94;;;-145.39;48.32
37078;BME280;22989;55.998;37.212;2023-03-01T06:01:33;-11298.94;;;-145.39;48.18
37078;BME280;22989;55.998;37.212;2023-03-01T06:03:58;-11298.94;;;-145.39;47.75
37078;BME280;22989;55.998;37.212;2023-03-01T06:06:24;-11298.94;;;-145.39;47.99
37078;BME280;22989;55.998;37.212;2023-03-01T06:08:51;-11298.94;;;-145.39;47.78
37078;BME280;22989;55.998;37.212;2023-03-01T06:11:16;-11298.94;;;-145.39;47.89
37078;BME280;22989;55.998;37.212;2023-03-01T06:13:43;-11298.94;;;-145.39;47.54
37078;BME280;22989;55.998;37.212;2023-03-01T06:16:09;-11298.94;;;-145.39;47.67
37078;BME280;22989;55.998;37.212;2023-03-01T06:18:36;-11298.94;;;-145.39;47.22
37078;BME280;22989;55.998;37.212;2023-03-01T06:21:02;-11298.94;;;-145.39;47.16
37078;BME280;22989;55.998;37.212;2023-03-01T06:23:27;-11298.94;;;-145.39;46.90
37078;BME280;22989;55.998;37.212;2023-03-01T06:25:53;-11298.94;;;-145.39;46.64
37078;BME280;22989;55.998;37.212;2023-03-01T06:28:19;-11298.94;;;-145.39;46.44
37078;BME280;22989;55.998;37.212;2023-03-01T06:30:44;-11298.94;;;-145.39;46.24
37078;BME280;22989;55.998;37.212;2023-03-01T06:33:10;-11298.94;;;-145.39;46.08
37078;BME280;22989;55.998;37.212;2023-03-01T06:35:35;-11298.94;;;-145.39;45.84
37078;BME280;22989;55.998;37.212;2023-03-01T06:38:02;-11298.94;;;-145.39;46.00
37078;BME280;22989;55.998;37.212;2023-03-01T06:40:29;-11298.94;;;-145.39;45.84
37078;BME280;22989;55.998;37.212;2023-03-01T06:42:57;-11298.94;;;-145.39;45.81
37078;BME280;22989;55.998;37.212;2023-03-01T06:45:23;-11298.94;;;-145.39;44.92
37078;BME280;22989;55.998;37.212;2023-03-01T06:47:49;-11298.94;;;-145.39;42.59
37078;BME280;22989;55.998;37.212;2023-03-01T06:50:16;-11298.94;;;-145.39;39.82
37078;BME280;22989;55.998;37.212;2023-03-01T06:52:42;-11298.94;;;-145.39;38.09
37078;BME280;22989;55.998;37.212;2023-03-01T06:55:11;-11298.94;;;-145.39;36.61
37078;BME280;22989;55.998;37.212;2023-03-01T06:57:37;-11298.94;;;-145.39;36.09
37078;BME280;22989;55.998;37.212;2023-03-01T07:00:06;-11298.94;;;-145.39;35.51
37078;BME280;22989;55.998;37.212;2023-03-01T07:02:32;-11298.94;;;-145.39;35.64
37078;BME280;22989;55.998;37.212;2023-03-01T07:04:57;-11298.94;;;-145.39;36.48
37078;BME280;22989;55.998;37.212;2023-03-01T07:07:23;-11298.94;;;-145.39;37.20
37078;BME280;22989;55.998;37.212;2023-03-01T07:09:49;-11298.94;;;-145.39;37.72
37078;BME280;22989;55.998;37.212;2023-03-01T07:12:15;-11298.94;;;-145.39;38.07
37078;BME280;22989;55.998;37.212;2023-03-01T07:14:41;-11298.94;;;-145.39;38.72
37078;BME280;22989;55.998;37.212;2023-03-01T07:17:07;-11298.94;;;-145.39;39.19
37078;BME280;22989;55.998;37.212;2023-03-01T07:19:33;-11298.94;;;-145.39;39.51
37078;BME280;22989;55.998;37.212;2023-03-01T07:21:58;-11298.94;;;-145.39;39.40
37078;BME280;22989;55.998;37.212;2023-03-01T07:24:24;-11298.94;;;-145.39;39.52
37078;BME280;22989;55.998;37.212;2023-03-01T07:26:50;-11298.94;;;-145.39;39.62
37078;BME280;22989;55.998;37.212;2023-03-01T07:29:17;-11298.94;;;-145.39;39.68
37078;BME280;22989;55.998;37.212;2023-03-01T07:31:43;-11298.94;;;-145.39;39.63
37078;BME280;22989;55.998;37.212;2023-03-01T07:34:08;-11298.94;;;-145.39;39.36
37078;BME280;22989;55.998;37.212;2023-03-01T07:36:36;-11298.94;;;-145.39;39.04
37078;BME280;22989;55.998;37.212;2023-03-01T07:39:02;-11298.94;;;-145.39;38.54
37078;BME280;22989;55.998;37.212;2023-03-01T07:41:29;-11298.94;;;-145.39;38.19
37078;BME280;22989;55.998;37.212;2023-03-01T07:43:54;-11298.94;;;-145.39;38.09
37078;BME280;22989;55.998;37.212;2023-03-01T07:46:20;-11298.94;;;-145.39;38.35
37078;BME280;22989;55.998;37.212;2023-03-01T07:48:46;-11298.94;;;-145.39;38.67
37078;BME280;22989;55.998;37.212;2023-03-01T07:51:12;-11298.94;;;-145.39;38.87
37078;BME280;22989;55.998;37.212;2023-03-01T07:53:39;-11298.94;;;-145.39;39.15
37078;BME280;22989;55.998;37.212;2023-03-01T07:56:07;-11298.94;;;-145.39;39.56
37078;BME280;22989;55.998;37.212;2023-03-01T07:58:43;-11298.94;;;-145.39;39.74
37078;BME280;22989;55.998;37.212;2023-03-01T08:01:12;-11298.94;;;-145.39;39.91
37078;BME280;22989;55.998;37.212;2023-03-01T08:03:38;-11298.94;;;-145.39;39.81
37078;BME280;22989;55.998;37.212;2023-03-01T08:06:05;-11298.94;;;-145.39;39.85
37078;BME280;22989;55.998;37.212;2023-03-01T08:08:32;-11298.94;;;-145.39;40.08
37078;BME280;22989;55.998;37.212;2023-03-01T08:10:59;-11298.94;;;-145.39;40.26
37078;BME280;22989;55.998;37.212;2023-03-01T08:13:26;-11298.94;;;-145.39;40.62
37078;BME280;22989;55.998;37.212;2023-03-01T08:15:52;-11298.94;;;-145.39;40.91
37078;BME280;22989;55.998;37.212;2023-03-01T08:18:19;-11298.94;;;-145.39;41.13
37078;BME280;22989;55.998;37.212;2023-03-01T08:20:46;-11298.94;;;-145.39;41.38
37078;BME280;22989;55.998;37.212;2023-03-01T08:23:12;-11298.94;;;-145.39;41.62
37078;BME280;22989;55.998;37.212;2023-03-01T08:25:38;-11298.94;;;-145.39;41.97
37078;BME280;22989;55.998;37.212;2023-03-01T08:28:04;-11298.94;;;-145.39;41.90
37078;BME280;22989;55.998;37.212;2023-03-01T08:30:30;-11298.94;;;-145.39;41.91
37078;BME280;22989;55.998;37.212;2023-03-01T08:32:56;-11298.94;;;-145.39;41.64
37078;BME280;22989;55.998;37.212;2023-03-01T08:35:22;-11298.94;;;-145.39;41.51
37078;BME280;22989;55.998;37.212;2023-03-01T08:37:48;-11298.94;;;-145.39;41.34
37078;BME280;22989;55.998;37.212;2023-03-01T08:40:14;-11298.94;;;-145.39;41.58
37078;BME280;22989;55.998;37.212;2023-03-01T08:42:41;-11298.94;;;-145.39;41.96
37078;BME280;22989;55.998;37.212;2023-03-01T08:45:09;-11298.94;;;-145.39;42.26
37078;BME280;22989;55.998;37.212;2023-03-01T08:47:35;-11298.94;;;-145.39;42.73
37078;BME280;22989;55.998;37.212;2023-03-01T08:50:01;-11298.94;;;-145.39;42.66
37078;BME280;22989;55.998;37.212;2023-03-01T08:52:27;-11298.94;;;-145.39;42.17
37078;BME280;22989;55.998;37.212;2023-03-01T08:54:53;-11298.94;;;-145.39;41.72
37078;BME280;22989;55.998;37.212;2023-03-01T08:57:18;-11298.94;;;-145.39;41.42
37078;BME280;22989;55.998;37.212;2023-03-01T08:59:44;-11298.94;;;-145.39;41.69
37078;BME280;22989;55.998;37.212;2023-03-01T09:02:15;-11298.94;;;-145.39;41.98
37078;BME280;22989;55.998;37.212;2023-03-01T09:04:41;-11298.94;;;-145.39;42.17
37078;BME280;22989;55.998;37.212;2023-03-01T09:07:07;-11298.94;;;-145.39;42.28
37078;BME280;22989;55.998;37.212;2023-03-01T09:09:33;-11298.94;;;-145.39;42.13
37078;BME280;22989;55.998;37.212;2023-03-01T09:11:59;-11298.94;;;-145.39;42.03
37078;BME280;22989;55.998;37.212;2023-03-01T09:14:24;-11298.94;;;-145.39;42.00
37078;BME280;22989;55.998;37.212;2023-03-01T09:16:50;-11298.94;;;-145.39;42.08
37078;BME280;22989;55.998;37.212;2023-03-01T09:19:16;-11298.94;;;-145.39;42.01
37078;BME280;22989;55.998;37.212;2023-03-01T09:21:41;-11298.94;;;-145.39;41.95
37078;BME280;22989;55.998;37.212;2023-03-01T09:24:17;-11298.94;;;-145.39;41.63
37078;BME280;22989;55.998;37.212;2023-03-01T09:26:43;-11298.94;;;-145.39;41.19
37078;BME280;22989;55.998;37.212;2023-03-01T09:29:12;-11298.94;;;-145.39;40.81
37078;BME280;22989;55.998;37.212;2023-03-01T09:31:37;-11298.94;;;-145.39;40.69
37078;BME280;22989;55.998;37.212;2023-03-01T09:34:03;-11298.94;;;-145.39;40.52
37078;BME280;22989;55.998;37.212;2023-03-01T09:36:29;-11298.94;;;-145.39;40.37
37078;BME280;22989;55.998;37.212;2023-03-01T09:38:54;-11298.94;;;-145.39;40.39
37078;BME280;22989;55.998;37.212;2023-03-01T09:41:31;-11298.94;;;-145.39;40.51
37078;BME280;22989;55.998;37.212;2023-03-01T09:46:51;-11298.94;;;-145.39;40.54
37078;BME280;22989;55.998;37.212;2023-03-01T09:49:20;-11298.94;;;-145.39;40.60
37078;BME280;22989;55.998;37.212;2023-03-01T09:52:21;-11298.94;;;-145.39;40.50
37078;BME280;22989;55.998;37.212;2023-03-01T09:54:45;-11298.94;;;-145.39;40.43
37078;BME280;22989;55.998;37.212;2023-03-01T10:03:00;-11298.94;;;-145.39;39.91
37078;BME280;22989;55.998;37.212;2023-03-01T10:05:38;-11298.94;;;-145.39;39.59
37078;BME280;22989;55.998;37.212;2023-03-01T10:11:03;-11298.94;;;-145.39;39.31
37078;BME280;22989;55.998;37.212;2023-03-01T10:13:52;-11298.94;;;-145.39;38.74
37078;BME280;22989;55.998;37.212;2023-03-01T10:16:50;-11298.94;;;-145.39;38.55
37078;BME280;22989;55.998;37.212;2023-03-01T10:19:24;-11298.94;;;-145.39;38.34
37078;BME280;22989;55.998;37.212;2023-03-01T10:21:52;-11298.94;;;-145.39;38.54
37078;BME280;22989;55.998;37.212;2023-03-01T10:24:19;-11298.94;;;-145.39;38.69
37078;BME280;22989;55.998;37.212;2023-03-01T10:29:16;-11298.94;;;-145.39;39.37
37078;BME280;22989;55.998;37.212;2023-03-01T10:31:52;-11298.94;;;-145.39;39.61
37078;BME280;22989;55.998;37.212;2023-03-01T10:34:30;-11298.94;;;-145.39;39.36
37078;BME280;22989;55.998;37.212;2023-03-01T10:37:04;-11298.94;;;-145.39;39.04
37078;BME280;22989;55.998;37.212;2023-03-01T10:39:33;-11298.94;;;-145.39;38.98
37078;BME280;22989;55.998;37.212;2023-03-01T10:42:19;-11298.94;;;-145.39;39.05
37078;BME280;22989;55.998;37.212;2023-03-01T10:44:48;-11298.94;;;-145.39;39.02
37078;BME280;22989;55.998;37.212;2023-03-01T10:47:26;-11298.94;;;-145.39;38.81
37078;BME280;22989;55.998;37.212;2023-03-01T10:49:58;-11298.94;;;-145.39;38.96
37078;BME280;22989;55.998;37.212;2023-03-01T10:52:30;-11298.94;;;-145.39;38.89
37078;BME280;22989;55.998;37.212;2023-03-01T10:55:04;-11298.94;;;-145.39;38.67
37078;BME280;22989;55.998;37.212;2023-03-01T10:57:46;-11298.94;;;-145.39;38.70
37078;BME280;22989;55.998;37.212;2023-03-01T11:00:22;-11298.94;;;-145.39;39.15
37078;BME280;22989;55.998;37.212;2023-03-01T11:05:25;-11298.94;;;-145.39;39.83
37078;BME280;22989;55.998;37.212;2023-03-01T11:07:53;-11298.94;;;-145.39;39.61
37078;BME280;22989;55.998;37.212;2023-03-01T11:10:30;-11298.94;;;-145.39;39.84
37078;BME280;22989;55.998;37.212;2023-03-01T11:15:33;-11298.94;;;-145.39;39.21
37078;BME280;22989;55.998;37.212;2023-03-01T11:18:00;-11298.94;;;-145.39;38.94
37078;BME280;22989;55.998;37.212;2023-03-01T11:23:12;-11298.94;;;-145.39;38.69
37078;BME280;22989;55.998;37.212;2023-03-01T11:25:43;-11298.94;;;-145.39;38.44
37078;BME280;22989;55.998;37.212;2023-03-01T11:28:17;-11298.94;;;-145.39;38.27
37078;BME280;22989;55.998;37.212;2023-03-01T11:33:46;-11298.94;;;-145.39;37.97
37078;BME280;22989;55.998;37.212;2023-03-01T11:36:46;-11298.94;;;-145.39;37.88
37078;BME280;22989;55.998;37.212;2023-03-01T11:41:39;-11298.94;;;-145.39;37.95
37078;BME280;22989;55.998;37.212;2023-03-01T11:44:33;-11298.94;;;-145.39;38.00
37078;BME280;22989;55.998;37.212;2023-03-01T11:49:39;-11298.94;;;-145.39;38.45
37078;BME280;22989;55.998;37.212;2023-03-01T11:52:39;-11298.94;;;-145.39;38.14
37078;BME280;22989;55.998;37.212;2023-03-01T11:55:19;-11298.94;;;-145.39;38.21
37078;BME280;22989;55.998;37.212;2023-03-01T12:06:12;-11298.94;;;-145.39;38.41
37078;BME280;22989;55.998;37.212;2023-03-01T12:14:39;-11298.94;;;-145.39;38.49
37078;BME280;22989;55.998;37.212;2023-03-01T12:22:30;-11298.94;;;-145.39;38.92
37078;BME280;22989;55.998;37.212;2023-03-01T12:25:16;-11298.94;;;-145.39;39.09
37078;BME280;22989;55.998;37.212;2023-03-01T12:36:27;-11298.94;;;-145.39;39.71
37078;BME280;22989;55.998;37.212;2023-03-01T12:39:31;-11298.94;;;-145.39;39.66
37078;BME280;22989;55.998;37.212;2023-03-01T12:42:24;-11298.94;;;-145.39;39.68
37078;BME280;22989;55.998;37.212;2023-03-01T12:48:30;-11298.94;;;-145.39;40.11
37078;BME280;22989;55.998;37.212;2023-03-01T12:51:02;-11298.94;;;-145.39;40.05
37078;BME280;22989;55.998;37.212;2023-03-01T12:53:32;-11298.94;;;-145.39;40.11
37078;BME280;22989;55.998;37.212;2023-03-01T12:56:02;-11298.94;;;-145.39;40.30
37078;BME280;22989;55.998;37.212;2023-03-01T13:01:41;-11298.94;;;-145.39;40.30
37078;BME280;22989;55.998;37.212;2023-03-01T13:12:03;-11298.94;;;-145.39;40.39
37078;BME280;22989;55.998;37.212;2023-03-01T13:16:57;-11298.94;;;-145.39;40.62
37078;BME280;22989;55.998;37.212;2023-03-01T13:19:24;-11298.94;;;-145.39;40.88
37078;BME280;22989;55.998;37.212;2023-03-01T13:21:53;-11298.94;;;-145.39;40.99
37078;BME280;22989;55.998;37.212;2023-03-01T13:24:40;-11298.94;;;-145.39;40.86
37078;BME280;22989;55.998;37.212;2023-03-01T13:32:26;-11298.94;;;-145.39;41.41
37078;BME280;22989;55.998;37.212;2023-03-01T13:37:29;-11298.94;;;-145.39;41.50
37078;BME280;22989;55.998;37.212;2023-03-01T13:39:57;-11298.94;;;-145.39;41.39
37078;BME280;22989;55.998;37.212;2023-03-01T13:42:33;-11298.94;;;-145.39;41.36
37078;BME280;22989;55.998;37.212;2023-03-01T13:44:59;-11298.94;;;-145.39;41.26
37078;BME280;22989;55.998;37.212;2023-03-01T13:47:27;-11298.94;;;-145.39;41.36
37078;BME280;22989;55.998;37.212;2023-03-01T13:49:57;-11298.94;;;-145.39;41.15
37078;BME280;22989;55.998;37.212;2023-03-01T13:52:35;-11298.94;;;-145.39;41.24
37078;BME280;22989;55.998;37.212;2023-03-01T13:57:39;-11298.94;;;-145.39;41.40
37078;BME280;22989;55.998;37.212;2023-03-01T14:00:05;-11298.94;;;-145.39;41.24
37078;BME280;22989;55.998;37.212;2023-03-01T14:02:32;-11298.94;;;-145.39;41.44
37078;BME280;22989;55.998;37.212;2023-03-01T14:05:00;-11298.94;;;-145.39;41.64